createdAt,value
2023-04-09T00:01:07.887Z,67.81
2023-04-09T00:03:36.489Z,67.03
2023-04-09T00:06:06.477Z,67.69
2023-04-09T00:08:34.729Z,67.37
2023-04-09T00:11:02.673Z,67.00
2023-04-09T00:16:01.781Z,66.89
2023-04-09T00:18:29.792Z,67.50
2023-04-09T00:20:57.651Z,67.35
2023-04-09T00:23:27.018Z,67.28
2023-04-09T00:25:54.941Z,67.78
2023-04-09T00:28:22.872Z,68.75
2023-04-09T00:30:50.914Z,69.42
2023-04-09T00:33:18.911Z,69.88
2023-04-09T00:35:46.878Z,69.04
2023-04-09T00:38:14.933Z,68.76
2023-04-09T00:40:44.391Z,69.33
2023-04-09T00:43:12.306Z,68.75
2023-04-09T00:45:40.521Z,68.71
2023-04-09T00:48:08.774Z,68.35
2023-04-09T00:50:37.235Z,68.45
2023-04-09T00:53:06.825Z,68.28
2023-04-09T00:55:35.500Z,68.37
2023-04-09T00:58:04.785Z,68.46
2023-04-09T01:00:32.721Z,68.09
2023-04-09T01:03:01.886Z,68.15
2023-04-09T01:05:35.625Z,68.36
2023-04-09T01:08:13.624Z,68.17
2023-04-09T01:10:48.200Z,68.24
2023-04-09T01:13:25.124Z,68.70
2023-04-09T01:15:57.934Z,69.04
2023-04-09T01:18:30.696Z,68.80
2023-04-09T01:21:03.340Z,68.41
2023-04-09T01:23:46.352Z,68.36
2023-04-09T01:26:30.458Z,68.82
2023-04-09T01:29:01.421Z,69.02
2023-04-09T01:31:32.205Z,68.93
2023-04-09T01:34:02.176Z,68.97
2023-04-09T01:36:32.385Z,69.08
2023-04-09T01:39:02.565Z,69.13
2023-04-09T01:41:33.545Z,69.26
2023-04-09T01:44:04.763Z,69.65
2023-04-09T01:46:34.749Z,70.26
2023-04-09T01:49:03.300Z,70.34
2023-04-09T01:51:32.611Z,70.19
2023-04-09T01:54:01.769Z,70.61
2023-04-09T01:56:29.760Z,70.76
2023-04-09T01:58:57.659Z,70.98
2023-04-09T02:01:37.148Z,71.16
2023-04-09T02:04:11.009Z,71.30
2023-04-09T02:06:43.377Z,71.44
2023-04-09T02:09:13.068Z,71.71
2023-04-09T02:11:43.387Z,71.22
2023-04-09T02:14:13.553Z,71.22
2023-04-09T02:16:43.353Z,71.21
2023-04-09T02:19:12.043Z,71.39
2023-04-09T02:21:39.967Z,70.98
2023-04-09T02:24:07.934Z,70.90
2023-04-09T02:26:35.925Z,71.31
2023-04-09T02:29:04.572Z,71.46
2023-04-09T02:31:32.637Z,71.77
2023-04-09T02:34:02.025Z,71.91
2023-04-09T02:36:29.934Z,72.04
2023-04-09T02:38:57.913Z,72.32
2023-04-09T02:41:25.924Z,72.82
2023-04-09T02:43:53.861Z,72.54
2023-04-09T02:46:22.147Z,72.77
2023-04-09T02:48:50.340Z,73.43
2023-04-09T02:51:19.980Z,73.74
2023-04-09T02:53:47.936Z,73.62
2023-04-09T02:56:15.932Z,73.87
2023-04-09T02:58:43.862Z,73.66
2023-04-09T03:01:11.869Z,73.87
2023-04-09T03:03:42.209Z,73.42
2023-04-09T03:06:10.663Z,73.62
2023-04-09T03:08:40.002Z,73.76
2023-04-09T03:11:08.110Z,73.57
2023-04-09T03:13:36.029Z,73.28
2023-04-09T03:16:03.995Z,72.89
2023-04-09T03:18:31.983Z,72.95
2023-04-09T03:21:01.154Z,72.97
2023-04-09T03:23:34.408Z,72.87
2023-04-09T03:26:06.006Z,73.04
2023-04-09T03:28:41.660Z,73.00
2023-04-09T03:31:09.648Z,73.36
2023-04-09T03:33:41.213Z,73.67
2023-04-09T03:36:10.043Z,73.28
2023-04-09T03:38:58.368Z,73.26
2023-04-09T03:41:32.809Z,73.73
2023-04-09T03:44:04.409Z,73.45
2023-04-09T03:46:39.980Z,73.94
2023-04-09T03:49:10.040Z,73.47
2023-04-09T03:51:42.608Z,73.66
2023-04-09T03:54:10.564Z,73.91
2023-04-09T03:56:41.019Z,73.66
2023-04-09T03:59:12.364Z,73.59
2023-04-09T04:01:43.600Z,74.26
2023-04-09T04:04:11.955Z,74.13
2023-04-09T04:06:47.444Z,74.13
2023-04-09T04:09:20.990Z,74.59
2023-04-09T04:11:57.034Z,74.94
2023-04-09T04:14:28.905Z,73.86
2023-04-09T04:17:04.040Z,74.63
2023-04-09T04:19:32.790Z,74.45
2023-04-09T04:22:01.306Z,74.82
2023-04-09T04:24:29.492Z,74.07
2023-04-09T04:26:58.893Z,74.65
2023-04-09T04:29:32.411Z,74.56
2023-04-09T04:32:02.403Z,75.00
2023-04-09T04:34:36.167Z,75.54
2023-04-09T04:37:14.922Z,74.71
2023-04-09T04:39:42.922Z,74.80
2023-04-09T04:42:16.983Z,75.08
2023-04-09T04:44:46.209Z,74.84
2023-04-09T04:47:30.212Z,74.31
2023-04-09T04:49:59.784Z,74.78
2023-04-09T04:52:27.883Z,74.72
2023-04-09T04:54:55.875Z,74.58
2023-04-09T04:57:26.735Z,74.52
2023-04-09T04:59:55.358Z,74.94
2023-04-09T05:02:23.453Z,75.30
2023-04-09T05:05:11.681Z,75.17
2023-04-09T05:07:45.821Z,74.99
2023-04-09T05:10:13.852Z,75.09
2023-04-09T05:12:45.188Z,74.92
2023-04-09T05:15:20.214Z,75.27
2023-04-09T05:17:48.163Z,76.04
2023-04-09T05:20:17.705Z,75.19
2023-04-09T05:23:04.783Z,75.29
2023-04-09T05:25:38.382Z,75.59
2023-04-09T05:28:11.224Z,75.23
2023-04-09T05:30:40.065Z,75.22
2023-04-09T05:33:09.072Z,75.45
2023-04-09T05:35:39.831Z,74.56
2023-04-09T05:38:08.016Z,74.65
2023-04-09T05:40:36.406Z,74.89
2023-04-09T05:43:09.442Z,77.11
2023-04-09T05:45:41.885Z,77.96
2023-04-09T05:48:10.274Z,78.06
2023-04-09T05:50:53.389Z,77.62
2023-04-09T05:53:22.463Z,75.92
2023-04-09T05:55:50.463Z,76.52
2023-04-09T05:58:22.183Z,75.57
2023-04-09T06:00:51.697Z,75.30
2023-04-09T06:03:20.057Z,75.52
2023-04-09T06:05:48.456Z,75.67
2023-04-09T06:08:16.661Z,76.77
2023-04-09T06:10:44.593Z,76.37
2023-04-09T06:13:12.575Z,75.46
2023-04-09T06:15:42.016Z,75.02
2023-04-09T06:18:10.004Z,74.96
2023-04-09T06:20:38.004Z,75.71
2023-04-09T06:23:06.280Z,75.45
2023-04-09T06:25:34.380Z,75.54
2023-04-09T06:28:03.077Z,76.19
2023-04-09T06:30:32.111Z,75.77
2023-04-09T06:33:01.457Z,75.26
2023-04-09T06:35:29.407Z,75.20
2023-04-09T06:37:57.386Z,75.00
2023-04-09T06:40:25.310Z,74.33
2023-04-09T06:42:53.201Z,74.41
2023-04-09T06:45:25.432Z,74.23
2023-04-09T06:47:53.562Z,74.37
2023-04-09T06:50:22.874Z,73.37
2023-04-09T06:52:50.852Z,74.06
2023-04-09T06:55:18.896Z,74.08
2023-04-09T06:57:46.883Z,73.53
2023-04-09T07:00:15.592Z,73.18
2023-04-09T07:02:43.747Z,72.93
2023-04-09T07:05:11.933Z,73.32
2023-04-09T07:07:41.246Z,72.71
2023-04-09T07:10:10.210Z,72.22
2023-04-09T07:12:38.141Z,71.40
2023-04-09T07:15:07.644Z,70.53
2023-04-09T07:17:36.258Z,71.63
2023-04-09T07:20:04.541Z,72.20
2023-04-09T07:22:32.426Z,72.48
2023-04-09T07:25:01.767Z,71.23
2023-04-09T07:27:30.268Z,71.52
2023-04-09T07:29:59.026Z,71.43
2023-04-09T07:32:28.562Z,71.40
2023-04-09T07:34:57.395Z,72.14
2023-04-09T07:37:25.371Z,71.90
2023-04-09T07:39:53.502Z,71.41
2023-04-09T07:42:22.960Z,70.97
2023-04-09T07:44:51.449Z,70.81
2023-04-09T07:47:19.355Z,71.61
2023-04-09T07:49:47.252Z,72.00
2023-04-09T07:52:15.436Z,72.04
2023-04-09T07:54:43.308Z,72.17
2023-04-09T07:57:11.320Z,71.23
2023-04-09T07:59:40.624Z,72.40
2023-04-09T08:02:08.988Z,71.40
2023-04-09T08:04:37.183Z,72.60
2023-04-09T08:07:05.428Z,72.08
2023-04-09T08:09:33.492Z,72.23
2023-04-09T08:12:01.425Z,71.01
2023-04-09T08:14:29.368Z,70.71
2023-04-09T08:16:58.691Z,71.07
2023-04-09T08:19:26.706Z,70.52
2023-04-09T08:21:54.615Z,70.82
2023-04-09T08:24:22.592Z,70.08
2023-04-09T08:26:50.526Z,69.08
2023-04-09T08:29:18.591Z,68.87
2023-04-09T08:31:46.535Z,69.70
2023-04-09T08:34:17.446Z,67.48
2023-04-09T08:36:47.326Z,68.06
2023-04-09T08:39:16.458Z,69.21
2023-04-09T08:41:45.060Z,68.89
2023-04-09T08:44:13.341Z,68.38
2023-04-09T08:46:41.401Z,68.49
2023-04-09T08:49:10.247Z,69.00
2023-04-09T08:51:40.381Z,68.60
2023-04-09T08:54:08.547Z,69.03
2023-04-09T08:56:36.844Z,70.18
2023-04-09T08:59:05.529Z,69.47
2023-04-09T09:01:34.056Z,69.77
2023-04-09T09:04:04.161Z,69.43
2023-04-09T09:06:34.148Z,68.93
2023-04-09T09:09:06.641Z,69.05
2023-04-09T09:11:35.452Z,68.39
2023-04-09T09:14:04.907Z,67.87
2023-04-09T09:16:34.820Z,67.75
2023-04-09T09:19:03.609Z,66.88
2023-04-09T09:21:31.655Z,69.23
2023-04-09T09:23:59.663Z,70.13
2023-04-09T09:26:30.426Z,68.18
2023-04-09T09:28:59.434Z,69.24
2023-04-09T09:31:27.916Z,67.50
2023-04-09T09:33:56.503Z,67.31
2023-04-09T09:36:34.664Z,67.23
2023-04-09T09:39:08.305Z,66.19
2023-04-09T09:41:38.026Z,67.84
2023-04-09T09:44:07.262Z,67.65
2023-04-09T09:46:37.350Z,68.07
2023-04-09T09:49:05.880Z,66.86
2023-04-09T09:51:36.935Z,65.93
2023-04-09T09:54:08.089Z,65.14
2023-04-09T09:56:42.677Z,65.52
2023-04-09T09:59:17.852Z,64.84
2023-04-09T10:01:48.388Z,63.81
2023-04-09T10:04:17.525Z,64.61
2023-04-09T10:06:46.515Z,64.19
2023-04-09T10:09:14.836Z,63.49
2023-04-09T10:11:45.654Z,63.44
2023-04-09T10:14:14.788Z,62.02
2023-04-09T10:16:43.023Z,61.31
2023-04-09T10:19:14.215Z,61.46
2023-04-09T10:21:47.709Z,60.74
2023-04-09T10:24:17.158Z,60.03
2023-04-09T10:26:46.983Z,59.68
2023-04-09T10:29:16.689Z,59.78
2023-04-09T10:31:50.019Z,57.87
2023-04-09T10:34:19.518Z,59.46
2023-04-09T10:36:53.041Z,58.81
2023-04-09T10:39:21.456Z,59.15
2023-04-09T10:41:51.515Z,58.91
2023-04-09T10:44:23.184Z,58.98
2023-04-09T10:46:51.399Z,58.52
2023-04-09T10:49:21.004Z,58.52
2023-04-09T10:52:04.645Z,57.04
2023-04-09T10:54:43.595Z,57.04
2023-04-09T10:57:14.699Z,57.52
2023-04-09T10:59:45.134Z,58.19
2023-04-09T11:02:44.054Z,58.23
2023-04-09T11:05:20.943Z,57.31
2023-04-09T11:07:58.569Z,58.22
2023-04-09T11:10:26.819Z,59.70
2023-04-09T11:12:56.135Z,58.65
2023-04-09T11:15:24.041Z,57.62
2023-04-09T11:17:52.121Z,57.44
2023-04-09T11:20:23.610Z,56.69
2023-04-09T11:22:53.144Z,57.30
2023-04-09T11:25:22.141Z,55.84
2023-04-09T11:27:50.917Z,56.44
2023-04-09T11:30:21.381Z,55.79
2023-04-09T11:32:49.911Z,59.17
2023-04-09T11:35:19.258Z,57.21
2023-04-09T11:37:48.108Z,56.00
2023-04-09T11:40:17.809Z,55.04
2023-04-09T11:42:46.625Z,55.96
2023-04-09T11:45:16.268Z,55.58
2023-04-09T11:47:46.777Z,54.89
2023-04-09T11:50:16.274Z,55.32
2023-04-09T11:52:45.765Z,55.52
2023-04-09T11:55:23.259Z,54.54
2023-04-09T11:57:53.150Z,54.66
2023-04-09T12:00:21.697Z,54.80
2023-04-09T12:02:52.179Z,54.52
2023-04-09T12:05:24.775Z,55.66
2023-04-09T12:07:56.576Z,55.01
2023-04-09T12:10:29.042Z,55.33
2023-04-09T12:13:02.464Z,55.35
2023-04-09T12:15:33.737Z,56.01
2023-04-09T12:18:03.676Z,55.57
2023-04-09T12:20:34.509Z,55.93
2023-04-09T12:23:03.909Z,54.85
2023-04-09T12:25:32.468Z,55.86
2023-04-09T12:28:00.542Z,57.19
2023-04-09T12:30:28.562Z,55.66
2023-04-09T12:32:57.070Z,55.64
2023-04-09T12:35:26.978Z,55.18
2023-04-09T12:37:54.891Z,54.89
2023-04-09T12:40:23.515Z,53.90
2023-04-09T12:42:51.725Z,54.15
2023-04-09T12:45:21.158Z,55.38
2023-04-09T12:47:49.465Z,53.49
2023-04-09T12:50:17.822Z,54.25
2023-04-09T12:52:47.221Z,52.40
2023-04-09T12:55:16.140Z,52.37
2023-04-09T12:57:45.844Z,52.96
2023-04-09T13:00:14.988Z,53.00
2023-04-09T13:02:43.141Z,52.53
2023-04-09T13:05:11.544Z,51.86
2023-04-09T13:07:41.497Z,52.07
2023-04-09T13:10:12.232Z,51.10
2023-04-09T13:12:40.211Z,51.41
2023-04-09T13:15:08.697Z,50.67
2023-04-09T13:17:36.662Z,49.95
2023-04-09T13:20:05.094Z,50.83
2023-04-09T13:22:33.024Z,50.59
2023-04-09T13:25:01.118Z,49.16
2023-04-09T13:27:30.438Z,49.41
2023-04-09T13:29:58.388Z,49.22
2023-04-09T13:32:26.776Z,48.18
2023-04-09T13:34:57.923Z,48.41
2023-04-09T13:37:26.483Z,47.63
2023-04-09T13:39:55.604Z,47.66
2023-04-09T13:42:24.009Z,47.16
2023-04-09T13:44:53.738Z,47.31
2023-04-09T13:47:23.956Z,47.60
2023-04-09T13:49:53.134Z,48.06
2023-04-09T13:52:21.181Z,48.35
2023-04-09T13:54:49.525Z,48.71
2023-04-09T13:57:17.880Z,48.83
2023-04-09T13:59:45.862Z,47.98
2023-04-09T14:02:15.442Z,48.86
2023-04-09T14:04:43.540Z,47.79
2023-04-09T14:07:11.654Z,47.18
2023-04-09T14:09:39.603Z,46.53
2023-04-09T14:12:07.601Z,45.93
2023-04-09T14:14:35.655Z,45.08
2023-04-09T14:17:03.545Z,45.30
2023-04-09T14:19:32.819Z,45.05
2023-04-09T14:22:00.850Z,44.73
2023-04-09T14:24:28.770Z,44.60
2023-04-09T14:26:56.903Z,43.94
2023-04-09T14:29:24.834Z,43.77
2023-04-09T14:31:54.242Z,43.95
2023-04-09T14:34:23.190Z,43.42
2023-04-09T14:36:52.460Z,44.30
2023-04-09T14:39:20.463Z,44.36
2023-04-09T14:41:48.425Z,44.78
2023-04-09T14:44:16.334Z,44.74
2023-04-09T14:46:44.600Z,43.61
2023-04-09T14:49:12.569Z,43.34
2023-04-09T14:51:40.663Z,43.98
2023-04-09T14:54:09.986Z,44.31
2023-04-09T14:56:37.909Z,45.13
2023-04-09T14:59:05.903Z,45.84
2023-04-09T15:01:33.894Z,45.58
2023-04-09T15:04:01.909Z,44.79
2023-04-09T15:06:31.379Z,43.25
2023-04-09T15:08:59.278Z,44.57
2023-04-09T15:11:29.458Z,44.52
2023-04-09T15:13:57.995Z,44.71
2023-04-09T15:16:28.072Z,45.73
2023-04-09T15:18:58.860Z,44.85
2023-04-09T15:21:28.540Z,45.05
2023-04-09T15:23:58.934Z,45.51
2023-04-09T15:26:29.054Z,45.29
2023-04-09T15:29:02.345Z,45.79
2023-04-09T15:31:30.624Z,45.09
2023-04-09T15:33:58.666Z,44.99
2023-04-09T15:36:27.136Z,44.41
2023-04-09T15:38:55.403Z,44.70
2023-04-09T15:41:24.005Z,45.25
2023-04-09T15:43:53.704Z,44.56
2023-04-09T15:46:21.901Z,44.93
2023-04-09T15:48:49.898Z,44.45
2023-04-09T15:51:17.850Z,44.02
2023-04-09T15:53:45.945Z,43.63
2023-04-09T15:56:15.274Z,43.42
2023-04-09T15:58:43.894Z,43.17
2023-04-09T16:01:13.531Z,44.90
2023-04-09T16:03:41.742Z,43.24
2023-04-09T16:06:13.369Z,44.15
2023-04-09T16:08:41.469Z,43.54
2023-04-09T16:11:09.587Z,42.07
2023-04-09T16:13:38.028Z,42.15
2023-04-09T16:16:07.541Z,40.70
2023-04-09T16:18:37.539Z,40.97
2023-04-09T16:21:06.059Z,39.52
2023-04-09T16:23:34.079Z,39.45
2023-04-09T16:26:02.023Z,41.20
2023-04-09T16:28:30.162Z,40.30
2023-04-09T16:30:58.177Z,39.68
2023-04-09T16:33:26.290Z,40.04
2023-04-09T16:35:55.576Z,39.73
2023-04-09T16:38:24.712Z,40.92
2023-04-09T16:40:52.633Z,40.45
2023-04-09T16:43:20.550Z,40.64
2023-04-09T16:45:48.483Z,40.47
2023-04-09T16:48:16.459Z,40.24
2023-04-09T16:50:44.419Z,40.23
2023-04-09T16:53:13.708Z,39.70
2023-04-09T16:55:41.646Z,39.99
2023-04-09T16:58:09.542Z,40.26
2023-04-09T17:00:37.621Z,40.57
2023-04-09T17:03:05.606Z,41.31
2023-04-09T17:05:33.865Z,41.20
2023-04-09T17:08:01.918Z,40.70
2023-04-09T17:10:31.300Z,41.27
2023-04-09T17:12:59.222Z,41.57
2023-04-09T17:15:27.315Z,41.96
2023-04-09T17:17:55.311Z,41.83
2023-04-09T17:20:24.948Z,41.71
2023-04-09T17:22:53.036Z,42.53
2023-04-09T17:25:21.490Z,43.09
2023-04-09T17:27:51.694Z,43.06
2023-04-09T17:30:19.619Z,43.50
2023-04-09T17:32:47.844Z,43.28
2023-04-09T17:35:15.799Z,44.20
2023-04-09T17:37:43.783Z,44.26
2023-04-09T17:40:15.095Z,43.67
2023-04-09T17:42:43.015Z,44.33
2023-04-09T17:45:13.082Z,44.16
2023-04-09T17:47:41.263Z,44.65
2023-04-09T17:50:10.390Z,45.05
2023-04-09T17:52:38.854Z,45.03
2023-04-09T17:55:08.132Z,45.34
2023-04-09T17:57:36.614Z,46.03
2023-04-09T18:00:05.205Z,45.86
2023-04-09T18:02:35.275Z,46.40
2023-04-09T18:05:04.860Z,46.99
2023-04-09T18:07:34.402Z,47.40
2023-04-09T18:10:02.928Z,47.29
2023-04-09T18:12:30.930Z,47.07
2023-04-09T18:14:58.815Z,47.10
2023-04-09T18:17:27.289Z,46.29
2023-04-09T18:19:58.459Z,45.75
2023-04-09T18:22:26.963Z,46.28
2023-04-09T18:24:55.281Z,46.27
2023-04-09T18:27:23.223Z,46.17
2023-04-09T18:29:51.118Z,45.30
2023-04-09T18:32:20.205Z,46.27
2023-04-09T18:34:48.614Z,46.06
2023-04-09T18:37:17.904Z,45.95
2023-04-09T18:39:46.031Z,45.77
2023-04-09T18:42:14.477Z,46.32
2023-04-09T18:44:42.622Z,46.04
2023-04-09T18:47:11.872Z,46.58
2023-04-09T18:49:39.781Z,46.59
2023-04-09T18:52:09.219Z,46.52
2023-04-09T18:54:38.960Z,46.91
2023-04-09T18:57:07.461Z,47.31
2023-04-09T18:59:35.879Z,46.92
2023-04-09T19:02:05.035Z,47.08
2023-04-09T19:04:36.329Z,46.83
2023-04-09T19:07:04.598Z,46.80
2023-04-09T19:09:33.146Z,47.12
2023-04-09T19:12:02.756Z,46.85
2023-04-09T19:14:30.693Z,47.26
2023-04-09T19:16:58.775Z,47.30
2023-04-09T19:19:27.436Z,47.11
2023-04-09T19:21:55.366Z,47.30
2023-04-09T19:24:23.656Z,47.69
2023-04-09T19:26:53.039Z,47.32
2023-04-09T19:29:22.295Z,47.69
2023-04-09T19:31:50.466Z,47.68
2023-04-09T19:34:18.442Z,48.63
2023-04-09T19:36:46.304Z,48.27
2023-04-09T19:39:15.216Z,48.56
2023-04-09T19:41:43.192Z,49.11
2023-04-09T19:44:11.401Z,49.53
2023-04-09T19:46:41.027Z,49.46
2023-04-09T19:49:09.067Z,49.82
2023-04-09T19:51:36.973Z,50.34
2023-04-09T19:54:05.073Z,50.36
2023-04-09T19:56:33.098Z,50.80
2023-04-09T19:59:01.031Z,50.78
2023-04-09T20:01:29.109Z,50.98
2023-04-09T20:03:58.626Z,51.06
2023-04-09T20:06:27.157Z,51.45
2023-04-09T20:08:56.031Z,51.48
2023-04-09T20:11:24.041Z,51.45
2023-04-09T20:13:52.050Z,51.59
2023-04-09T20:16:20.179Z,52.09
2023-04-09T20:18:48.151Z,53.28
2023-04-09T20:21:17.611Z,53.28
2023-04-09T20:23:46.364Z,53.39
2023-04-09T20:26:14.396Z,53.42
2023-04-09T20:28:42.320Z,54.47
2023-04-09T20:31:10.249Z,54.58
2023-04-09T20:33:38.158Z,54.54
2023-04-09T20:36:15.284Z,55.00
2023-04-09T20:38:44.622Z,54.91
2023-04-09T20:41:12.568Z,55.68
2023-04-09T20:43:40.540Z,55.64
2023-04-09T20:46:08.540Z,56.01
2023-04-09T20:48:36.578Z,56.37
2023-04-09T20:51:09.210Z,56.56
2023-04-09T20:53:37.553Z,56.89
2023-04-09T20:56:07.397Z,56.77
2023-04-09T20:58:35.548Z,57.06
2023-04-09T21:01:06.497Z,57.17
2023-04-09T21:03:34.961Z,56.99
2023-04-09T21:06:03.354Z,58.21
2023-04-09T21:08:31.437Z,58.36
2023-04-09T21:10:59.635Z,58.83
2023-04-09T21:13:28.909Z,58.33
2023-04-09T21:15:58.113Z,58.86
2023-04-09T21:18:26.228Z,58.82
2023-04-09T21:20:54.112Z,59.05
2023-04-09T21:23:22.161Z,59.22
2023-04-09T21:25:50.057Z,59.30
2023-04-09T21:28:18.088Z,58.78
2023-04-09T21:30:47.778Z,58.76
2023-04-09T21:33:15.791Z,59.06
2023-04-09T21:35:43.697Z,58.75
2023-04-09T21:38:11.654Z,58.75
2023-04-09T21:40:39.607Z,58.89
2023-04-09T21:43:08.831Z,58.90
2023-04-09T21:45:36.754Z,58.90
2023-04-09T21:48:06.368Z,59.05
2023-04-09T21:50:34.268Z,59.37
2023-04-09T21:53:03.200Z,59.25
2023-04-09T21:55:31.297Z,60.13
2023-04-09T21:57:59.193Z,60.73
2023-04-09T22:00:27.615Z,61.01
2023-04-09T22:03:00.981Z,60.99
2023-04-09T22:05:31.081Z,60.16
2023-04-09T22:07:59.175Z,59.96
2023-04-09T22:10:28.247Z,60.40
2023-04-09T22:12:56.465Z,60.04
2023-04-09T22:15:24.471Z,60.02
2023-04-09T22:17:52.848Z,60.53
2023-04-09T22:20:21.237Z,60.79
2023-04-09T22:22:50.533Z,60.41
2023-04-09T22:25:18.452Z,60.83
2023-04-09T22:27:50.612Z,60.76
2023-04-09T22:30:18.625Z,61.34
2023-04-09T22:32:46.577Z,61.49
2023-04-09T22:35:18.086Z,60.66
2023-04-09T22:37:47.248Z,61.54
2023-04-09T22:40:17.288Z,61.86
2023-04-09T22:42:47.215Z,60.80
2023-04-09T22:45:15.730Z,61.42
2023-04-09T22:47:43.770Z,61.23
2023-04-09T22:50:13.515Z,61.18
2023-04-09T22:52:41.485Z,61.04
2023-04-09T22:55:11.034Z,61.23
2023-04-09T22:57:43.025Z,61.59
2023-04-09T23:00:11.541Z,62.06
2023-04-09T23:02:39.615Z,61.99
2023-04-09T23:05:08.950Z,62.21
2023-04-09T23:07:36.946Z,62.06
2023-04-09T23:10:05.100Z,61.71
2023-04-09T23:12:33.024Z,61.71
2023-04-09T23:15:02.412Z,62.29
2023-04-09T23:17:30.488Z,62.79
2023-04-09T23:19:58.419Z,61.95
2023-04-09T23:22:27.319Z,62.56
2023-04-09T23:24:55.395Z,62.87
2023-04-09T23:27:28.245Z,62.16
2023-04-09T23:29:56.628Z,62.55
2023-04-09T23:32:25.948Z,63.12
2023-04-09T23:34:53.904Z,63.41
2023-04-09T23:37:21.849Z,62.66
2023-04-09T23:39:49.833Z,64.05
2023-04-09T23:42:17.797Z,63.82
2023-04-09T23:44:45.743Z,62.55
2023-04-09T23:47:14.084Z,63.79
2023-04-09T23:49:43.822Z,63.11
2023-04-09T23:52:11.706Z,63.84
2023-04-09T23:54:39.626Z,63.98
2023-04-09T23:57:07.565Z,63.32
2023-04-09T23:59:36.009Z,63.57
